sensor_id;sensor_type;location;lat;lon;timestamp;P1;durP1;ratioP1;P2;durP2;ratioP2
6037;SDS011;3047;42.600;23.470;2022-09-02T00:02:03;11.52;;;10.32;;
6037;SDS011;3047;42.600;23.470;2022-09-02T00:04:33;12.73;;;10.60;;
6037;SDS011;3047;42.600;23.470;2022-09-02T00:06:59;23.45;;;9.77;;
6037;SDS011;3047;42.600;23.470;2022-09-02T00:09:26;11.73;;;10.52;;
6037;SDS011;3047;42.600;23.470;2022-09-02T00:11:53;13.95;;;10.95;;
6037;SDS011;3047;42.600;23.470;2022-09-02T00:14:23;15.18;;;10.15;;
6037;SDS011;3047;42.600;23.470;2022-09-02T00:16:52;12.70;;;10.45;;
6037;SDS011;3047;42.600;23.470;2022-09-02T00:19:19;12.70;;;10.85;;
6037;SDS011;3047;42.600;23.470;2022-09-02T00:21:50;14.55;;;10.60;;
6037;SDS011;3047;42.600;23.470;2022-09-02T00:24:17;12.93;;;10.77;;
6037;SDS011;3047;42.600;23.470;2022-09-02T00:26:44;15.82;;;10.73;;
6037;SDS011;3047;42.600;23.470;2022-09-02T00:29:11;15.77;;;10.85;;
6037;SDS011;3047;42.600;23.470;2022-09-02T00:31:39;13.75;;;11.00;;
6037;SDS011;3047;42.600;23.470;2022-09-02T00:34:06;13.18;;;11.30;;
6037;SDS011;3047;42.600;23.470;2022-09-02T00:36:34;13.60;;;11.57;;
6037;SDS011;3047;42.600;23.470;2022-09-02T00:39:03;14.65;;;10.40;;
6037;SDS011;3047;42.600;23.470;2022-09-02T00:41:31;13.90;;;11.55;;
6037;SDS011;3047;42.600;23.470;2022-09-02T00:44:00;14.93;;;11.93;;
6037;SDS011;3047;42.600;23.470;2022-09-02T00:46:29;14.73;;;11.43;;
6037;SDS011;3047;42.600;23.470;2022-09-02T00:48:58;14.65;;;11.88;;
6037;SDS011;3047;42.600;23.470;2022-09-02T00:51:29;15.25;;;11.60;;
6037;SDS011;3047;42.600;23.470;2022-09-02T00:54:03;13.88;;;12.55;;
6037;SDS011;3047;42.600;23.470;2022-09-02T00:56:31;17.30;;;14.75;;
6037;SDS011;3047;42.600;23.470;2022-09-02T00:59:02;15.23;;;11.73;;
6037;SDS011;3047;42.600;23.470;2022-09-02T01:01:29;17.48;;;13.93;;
6037;SDS011;3047;42.600;23.470;2022-09-02T01:03:55;21.77;;;17.65;;
6037;SDS011;3047;42.600;23.470;2022-09-02T01:06:23;20.70;;;17.08;;
6037;SDS011;3047;42.600;23.470;2022-09-02T01:08:54;19.92;;;16.17;;
6037;SDS011;3047;42.600;23.470;2022-09-02T01:11:29;21.67;;;17.13;;
6037;SDS011;3047;42.600;23.470;2022-09-02T01:14:03;19.90;;;16.08;;
6037;SDS011;3047;42.600;23.470;2022-09-02T01:16:32;19.85;;;16.05;;
6037;SDS011;3047;42.600;23.470;2022-09-02T01:19:05;21.13;;;15.07;;
6037;SDS011;3047;42.600;23.470;2022-09-02T01:21:38;16.60;;;13.80;;
6037;SDS011;3047;42.600;23.470;2022-09-02T01:24:06;16.90;;;14.13;;
6037;SDS011;3047;42.600;23.470;2022-09-02T01:26:33;19.50;;;13.23;;
6037;SDS011;3047;42.600;23.470;2022-09-02T01:29:00;17.10;;;12.48;;
6037;SDS011;3047;42.600;23.470;2022-09-02T01:31:26;15.60;;;13.30;;
6037;SDS011;3047;42.600;23.470;2022-09-02T01:33:53;14.40;;;11.80;;
6037;SDS011;3047;42.600;23.470;2022-09-02T01:36:20;13.77;;;11.82;;
6037;SDS011;3047;42.600;23.470;2022-09-02T01:38:47;10.65;;;9.15;;
6037;SDS011;3047;42.600;23.470;2022-09-02T01:41:15;10.00;;;8.95;;
6037;SDS011;3047;42.600;23.470;2022-09-02T01:43:42;9.82;;;8.02;;
6037;SDS011;3047;42.600;23.470;2022-09-02T01:46:08;8.27;;;7.50;;
6037;SDS011;3047;42.600;23.470;2022-09-02T01:48:35;9.65;;;8.65;;
6037;SDS011;3047;42.600;23.470;2022-09-02T01:51:02;12.77;;;8.38;;
6037;SDS011;3047;42.600;23.470;2022-09-02T01:53:29;8.52;;;7.75;;
6037;SDS011;3047;42.600;23.470;2022-09-02T01:55:57;9.02;;;8.07;;
6037;SDS011;3047;42.600;23.470;2022-09-02T01:58:26;9.70;;;7.53;;
6037;SDS011;3047;42.600;23.470;2022-09-02T02:00:52;11.77;;;8.48;;
6037;SDS011;3047;42.600;23.470;2022-09-02T02:03:19;12.55;;;9.32;;
6037;SDS011;3047;42.600;23.470;2022-09-02T02:05:46;12.50;;;10.38;;
6037;SDS011;3047;42.600;23.470;2022-09-02T02:08:13;17.83;;;11.15;;
6037;SDS011;3047;42.600;23.470;2022-09-02T02:10:41;14.10;;;10.52;;
6037;SDS011;3047;42.600;23.470;2022-09-02T02:13:07;12.77;;;10.65;;
6037;SDS011;3047;42.600;23.470;2022-09-02T02:15:37;12.75;;;11.43;;
6037;SDS011;3047;42.600;23.470;2022-09-02T02:18:04;14.15;;;11.80;;
6037;SDS011;3047;42.600;23.470;2022-09-02T02:20:32;13.15;;;10.85;;
6037;SDS011;3047;42.600;23.470;2022-09-02T02:22:59;11.60;;;9.75;;
6037;SDS011;3047;42.600;23.470;2022-09-02T02:25:25;13.32;;;9.75;;
6037;SDS011;3047;42.600;23.470;2022-09-02T02:27:53;12.10;;;10.90;;
6037;SDS011;3047;42.600;23.470;2022-09-02T02:30:19;14.70;;;10.52;;
6037;SDS011;3047;42.600;23.470;2022-09-02T02:32:48;12.95;;;10.82;;
6037;SDS011;3047;42.600;23.470;2022-09-02T02:35:15;11.55;;;10.40;;
6037;SDS011;3047;42.600;23.470;2022-09-02T02:37:44;15.50;;;10.80;;
6037;SDS011;3047;42.600;23.470;2022-09-02T02:40:13;13.25;;;11.30;;
6037;SDS011;3047;42.600;23.470;2022-09-02T02:42:41;11.05;;;9.68;;
6037;SDS011;3047;42.600;23.470;2022-09-02T02:45:08;11.73;;;10.52;;
6037;SDS011;3047;42.600;23.470;2022-09-02T02:47:37;14.90;;;11.85;;
6037;SDS011;3047;42.600;23.470;2022-09-02T02:50:07;18.35;;;10.95;;
6037;SDS011;3047;42.600;23.470;2022-09-02T02:52:36;12.55;;;11.20;;
6037;SDS011;3047;42.600;23.470;2022-09-02T02:55:04;12.15;;;10.85;;
6037;SDS011;3047;42.600;23.470;2022-09-02T02:57:32;12.50;;;10.20;;
6037;SDS011;3047;42.600;23.470;2022-09-02T03:00:01;17.35;;;11.40;;
6037;SDS011;3047;42.600;23.470;2022-09-02T03:02:30;14.38;;;12.35;;
6037;SDS011;3047;42.600;23.470;2022-09-02T03:04:58;13.52;;;11.98;;
6037;SDS011;3047;42.600;23.470;2022-09-02T03:07:27;14.43;;;11.93;;
6037;SDS011;3047;42.600;23.470;2022-09-02T03:09:54;15.88;;;12.40;;
6037;SDS011;3047;42.600;23.470;2022-09-02T03:12:20;17.45;;;12.25;;
6037;SDS011;3047;42.600;23.470;2022-09-02T03:14:47;14.23;;;11.35;;
6037;SDS011;3047;42.600;23.470;2022-09-02T03:17:14;15.43;;;12.50;;
6037;SDS011;3047;42.600;23.470;2022-09-02T03:19:41;17.77;;;14.35;;
6037;SDS011;3047;42.600;23.470;2022-09-02T03:22:08;15.05;;;12.23;;
6037;SDS011;3047;42.600;23.470;2022-09-02T03:24:37;16.00;;;13.32;;
6037;SDS011;3047;42.600;23.470;2022-09-02T03:27:04;14.23;;;11.88;;
6037;SDS011;3047;42.600;23.470;2022-09-02T03:29:30;11.25;;;10.13;;
6037;SDS011;3047;42.600;23.470;2022-09-02T03:31:57;11.18;;;8.98;;
6037;SDS011;3047;42.600;23.470;2022-09-02T03:34:24;10.30;;;9.27;;
6037;SDS011;3047;42.600;23.470;2022-09-02T03:36:51;10.68;;;8.18;;
6037;SDS011;3047;42.600;23.470;2022-09-02T03:39:18;13.25;;;9.00;;
6037;SDS011;3047;42.600;23.470;2022-09-02T03:41:46;10.45;;;7.88;;
6037;SDS011;3047;42.600;23.470;2022-09-02T03:44:14;9.02;;;7.97;;
6037;SDS011;3047;42.600;23.470;2022-09-02T03:46:41;8.00;;;7.10;;
6037;SDS011;3047;42.600;23.470;2022-09-02T03:49:09;6.88;;;6.28;;
6037;SDS011;3047;42.600;23.470;2022-09-02T03:51:38;7.57;;;6.82;;
6037;SDS011;3047;42.600;23.470;2022-09-02T03:54:06;7.72;;;7.03;;
6037;SDS011;3047;42.600;23.470;2022-09-02T03:56:37;7.35;;;6.65;;
6037;SDS011;3047;42.600;23.470;2022-09-02T03:59:05;8.05;;;7.20;;
6037;SDS011;3047;42.600;23.470;2022-09-02T04:01:32;8.38;;;6.05;;
6037;SDS011;3047;42.600;23.470;2022-09-02T04:03:59;7.20;;;6.50;;
6037;SDS011;3047;42.600;23.470;2022-09-02T04:06:26;7.30;;;6.68;;
6037;SDS011;3047;42.600;23.470;2022-09-02T04:08:52;6.85;;;6.28;;
6037;SDS011;3047;42.600;23.470;2022-09-02T04:11:20;9.38;;;7.75;;
6037;SDS011;3047;42.600;23.470;2022-09-02T04:13:48;8.73;;;6.85;;
6037;SDS011;3047;42.600;23.470;2022-09-02T04:16:18;11.65;;;7.40;;
6037;SDS011;3047;42.600;23.470;2022-09-02T04:18:52;7.85;;;7.10;;
6037;SDS011;3047;42.600;23.470;2022-09-02T04:21:20;8.13;;;7.00;;
6037;SDS011;3047;42.600;23.470;2022-09-02T04:23:47;7.43;;;6.75;;
6037;SDS011;3047;42.600;23.470;2022-09-02T04:26:16;7.30;;;6.70;;
6037;SDS011;3047;42.600;23.470;2022-09-02T04:28:44;7.53;;;6.03;;
6037;SDS011;3047;42.600;23.470;2022-09-02T04:31:12;6.88;;;6.28;;
6037;SDS011;3047;42.600;23.470;2022-09-02T04:33:41;7.40;;;5.85;;
6037;SDS011;3047;42.600;23.470;2022-09-02T04:36:09;6.20;;;5.60;;
6037;SDS011;3047;42.600;23.470;2022-09-02T04:38:37;7.05;;;6.45;;
6037;SDS011;3047;42.600;23.470;2022-09-02T04:41:05;7.35;;;6.72;;
6037;SDS011;3047;42.600;23.470;2022-09-02T04:43:33;5.90;;;5.30;;
6037;SDS011;3047;42.600;23.470;2022-09-02T04:46:02;6.05;;;5.55;;
6037;SDS011;3047;42.600;23.470;2022-09-02T04:48:30;6.28;;;5.78;;
6037;SDS011;3047;42.600;23.470;2022-09-02T04:50:58;6.63;;;6.05;;
6037;SDS011;3047;42.600;23.470;2022-09-02T04:53:29;6.25;;;5.78;;
6037;SDS011;3047;42.600;23.470;2022-09-02T04:55:56;7.20;;;6.20;;
6037;SDS011;3047;42.600;23.470;2022-09-02T04:58:23;6.35;;;5.75;;
6037;SDS011;3047;42.600;23.470;2022-09-02T05:00:51;6.57;;;6.07;;
6037;SDS011;3047;42.600;23.470;2022-09-02T05:03:18;6.60;;;6.10;;
6037;SDS011;3047;42.600;23.470;2022-09-02T05:05:45;6.65;;;6.03;;
6037;SDS011;3047;42.600;23.470;2022-09-02T05:08:14;6.50;;;5.90;;
6037;SDS011;3047;42.600;23.470;2022-09-02T05:10:41;5.93;;;5.43;;
6037;SDS011;3047;42.600;23.470;2022-09-02T05:13:08;5.95;;;5.35;;
6037;SDS011;3047;42.600;23.470;2022-09-02T05:15:37;6.47;;;5.53;;
6037;SDS011;3047;42.600;23.470;2022-09-02T05:18:04;6.20;;;5.70;;
6037;SDS011;3047;42.600;23.470;2022-09-02T05:20:31;7.05;;;6.35;;
6037;SDS011;3047;42.600;23.470;2022-09-02T05:22:58;5.85;;;5.43;;
6037;SDS011;3047;42.600;23.470;2022-09-02T05:25:26;6.18;;;5.60;;
6037;SDS011;3047;42.600;23.470;2022-09-02T05:27:53;6.45;;;5.88;;
6037;SDS011;3047;42.600;23.470;2022-09-02T05:30:19;6.70;;;6.10;;
6037;SDS011;3047;42.600;23.470;2022-09-02T05:32:46;5.80;;;5.38;;
6037;SDS011;3047;42.600;23.470;2022-09-02T05:35:14;6.15;;;5.65;;
6037;SDS011;3047;42.600;23.470;2022-09-02T05:37:41;6.05;;;5.55;;
6037;SDS011;3047;42.600;23.470;2022-09-02T05:40:08;6.53;;;5.85;;
6037;SDS011;3047;42.600;23.470;2022-09-02T05:42:37;6.30;;;5.70;;
6037;SDS011;3047;42.600;23.470;2022-09-02T05:45:05;6.10;;;5.60;;
6037;SDS011;3047;42.600;23.470;2022-09-02T05:47:33;5.65;;;5.15;;
6037;SDS011;3047;42.600;23.470;2022-09-02T05:50:00;5.82;;;5.30;;
6037;SDS011;3047;42.600;23.470;2022-09-02T05:52:27;6.50;;;5.80;;
6037;SDS011;3047;42.600;23.470;2022-09-02T05:54:55;5.82;;;5.35;;
6037;SDS011;3047;42.600;23.470;2022-09-02T05:57:22;5.70;;;5.20;;
6037;SDS011;3047;42.600;23.470;2022-09-02T05:59:51;6.13;;;5.63;;
6037;SDS011;3047;42.600;23.470;2022-09-02T06:02:21;12.18;;;9.38;;
6037;SDS011;3047;42.600;23.470;2022-09-02T06:04:49;11.32;;;8.90;;
6037;SDS011;3047;42.600;23.470;2022-09-02T06:07:18;7.50;;;6.75;;
6037;SDS011;3047;42.600;23.470;2022-09-02T06:09:46;6.25;;;5.75;;
6037;SDS011;3047;42.600;23.470;2022-09-02T06:12:14;6.80;;;6.20;;
6037;SDS011;3047;42.600;23.470;2022-09-02T06:14:44;10.00;;;6.90;;
6037;SDS011;3047;42.600;23.470;2022-09-02T06:17:13;7.05;;;5.90;;
6037;SDS011;3047;42.600;23.470;2022-09-02T06:19:40;6.82;;;6.22;;
6037;SDS011;3047;42.600;23.470;2022-09-02T06:22:07;6.57;;;5.70;;
6037;SDS011;3047;42.600;23.470;2022-09-02T06:24:33;5.60;;;5.10;;
6037;SDS011;3047;42.600;23.470;2022-09-02T06:27:00;7.53;;;6.40;;
6037;SDS011;3047;42.600;23.470;2022-09-02T06:29:27;7.10;;;6.40;;
6037;SDS011;3047;42.600;23.470;2022-09-02T06:31:54;7.10;;;6.38;;
6037;SDS011;3047;42.600;23.470;2022-09-02T06:34:22;7.40;;;6.70;;
6037;SDS011;3047;42.600;23.470;2022-09-02T06:36:51;6.93;;;6.32;;
6037;SDS011;3047;42.600;23.470;2022-09-02T06:39:19;7.15;;;6.45;;
6037;SDS011;3047;42.600;23.470;2022-09-02T06:41:47;7.38;;;6.68;;
6037;SDS011;3047;42.600;23.470;2022-09-02T06:44:14;7.55;;;6.85;;
6037;SDS011;3047;42.600;23.470;2022-09-02T06:46:43;7.43;;;6.82;;
6037;SDS011;3047;42.600;23.470;2022-09-02T06:49:13;7.82;;;7.13;;
6037;SDS011;3047;42.600;23.470;2022-09-02T06:51:43;7.65;;;5.82;;
6037;SDS011;3047;42.600;23.470;2022-09-02T06:54:12;6.70;;;6.07;;
6037;SDS011;3047;42.600;23.470;2022-09-02T06:56:41;7.05;;;6.22;;
6037;SDS011;3047;42.600;23.470;2022-09-02T06:59:08;7.78;;;7.07;;
6037;SDS011;3047;42.600;23.470;2022-09-02T07:01:35;6.57;;;5.90;;
6037;SDS011;3047;42.600;23.470;2022-09-02T07:04:03;5.78;;;5.28;;
6037;SDS011;3047;42.600;23.470;2022-09-02T07:06:50;7.03;;;6.53;;
6037;SDS011;3047;42.600;23.470;2022-09-02T07:09:19;6.95;;;6.28;;
6037;SDS011;3047;42.600;23.470;2022-09-02T07:11:48;5.60;;;5.18;;
6037;SDS011;3047;42.600;23.470;2022-09-02T07:14:16;7.32;;;6.60;;
6037;SDS011;3047;42.600;23.470;2022-09-02T07:16:46;7.32;;;6.72;;
6037;SDS011;3047;42.600;23.470;2022-09-02T07:19:15;6.47;;;5.88;;
6037;SDS011;3047;42.600;23.470;2022-09-02T07:21:42;6.45;;;5.82;;
6037;SDS011;3047;42.600;23.470;2022-09-02T07:24:12;6.13;;;5.15;;
6037;SDS011;3047;42.600;23.470;2022-09-02T07:26:40;5.68;;;5.18;;
6037;SDS011;3047;42.600;23.470;2022-09-02T07:29:07;5.72;;;5.28;;
6037;SDS011;3047;42.600;23.470;2022-09-02T07:31:35;6.53;;;5.88;;
6037;SDS011;3047;42.600;23.470;2022-09-02T07:34:03;5.85;;;5.35;;
6037;SDS011;3047;42.600;23.470;2022-09-02T07:36:31;5.55;;;5.05;;
6037;SDS011;3047;42.600;23.470;2022-09-02T07:39:01;5.68;;;5.28;;
6037;SDS011;3047;42.600;23.470;2022-09-02T07:41:30;7.13;;;5.50;;
6037;SDS011;3047;42.600;23.470;2022-09-02T07:43:57;5.55;;;5.13;;
6037;SDS011;3047;42.600;23.470;2022-09-02T07:46:23;5.75;;;5.35;;
6037;SDS011;3047;42.600;23.470;2022-09-02T07:48:50;5.85;;;5.35;;
6037;SDS011;3047;42.600;23.470;2022-09-02T07:51:17;5.45;;;5.03;;
6037;SDS011;3047;42.600;23.470;2022-09-02T07:53:44;6.10;;;5.55;;
6037;SDS011;3047;42.600;23.470;2022-09-02T07:56:12;5.65;;;5.25;;
6037;SDS011;3047;42.600;23.470;2022-09-02T07:58:40;5.57;;;5.07;;
6037;SDS011;3047;42.600;23.470;2022-09-02T08:01:08;6.07;;;5.53;;
6037;SDS011;3047;42.600;23.470;2022-09-02T08:03:35;5.50;;;5.03;;
6037;SDS011;3047;42.600;23.470;2022-09-02T08:06:03;6.00;;;5.35;;
6037;SDS011;3047;42.600;23.470;2022-09-02T08:08:31;5.72;;;5.05;;
6037;SDS011;3047;42.600;23.470;2022-09-02T08:10:58;5.57;;;5.18;;
6037;SDS011;3047;42.600;23.470;2022-09-02T08:13:25;7.07;;;5.53;;
6037;SDS011;3047;42.600;23.470;2022-09-02T08:15:53;6.13;;;5.45;;
6037;SDS011;3047;42.600;23.470;2022-09-02T08:18:20;6.70;;;5.82;;
6037;SDS011;3047;42.600;23.470;2022-09-02T08:20:47;7.72;;;6.53;;
6037;SDS011;3047;42.600;23.470;2022-09-02T08:23:14;7.10;;;6.40;;
6037;SDS011;3047;42.600;23.470;2022-09-02T08:25:40;5.97;;;5.38;;
6037;SDS011;3047;42.600;23.470;2022-09-02T08:28:07;8.02;;;7.32;;
6037;SDS011;3047;42.600;23.470;2022-09-02T08:30:34;9.32;;;6.35;;
6037;SDS011;3047;42.600;23.470;2022-09-02T08:33:06;7.07;;;6.47;;
6037;SDS011;3047;42.600;23.470;2022-09-02T08:35:32;7.07;;;6.45;;
6037;SDS011;3047;42.600;23.470;2022-09-02T08:38:00;7.20;;;6.32;;
6037;SDS011;3047;42.600;23.470;2022-09-02T08:40:27;8.15;;;7.35;;
6037;SDS011;3047;42.600;23.470;2022-09-02T08:43:00;7.50;;;6.68;;
6037;SDS011;3047;42.600;23.470;2022-09-02T08:45:33;7.50;;;6.65;;
6037;SDS011;3047;42.600;23.470;2022-09-02T08:48:03;6.85;;;5.72;;
6037;SDS011;3047;42.600;23.470;2022-09-02T08:50:40;7.57;;;6.88;;
6037;SDS011;3047;42.600;23.470;2022-09-02T08:53:10;6.40;;;5.80;;
6037;SDS011;3047;42.600;23.470;2022-09-02T08:55:46;7.53;;;6.82;;
6037;SDS011;3047;42.600;23.470;2022-09-02T08:58:18;7.45;;;6.85;;
6037;SDS011;3047;42.600;23.470;2022-09-02T09:00:49;7.25;;;6.65;;
6037;SDS011;3047;42.600;23.470;2022-09-02T09:03:24;8.63;;;7.70;;
6037;SDS011;3047;42.600;23.470;2022-09-02T09:05:56;9.30;;;7.45;;
6037;SDS011;3047;42.600;23.470;2022-09-02T09:08:29;8.73;;;8.00;;
6037;SDS011;3047;42.600;23.470;2022-09-02T09:11:09;9.02;;;8.02;;
6037;SDS011;3047;42.600;23.470;2022-09-02T09:14:00;13.93;;;7.97;;
6037;SDS011;3047;42.600;23.470;2022-09-02T09:16:39;9.23;;;8.20;;
6037;SDS011;3047;42.600;23.470;2022-09-02T09:19:11;10.07;;;9.18;;
6037;SDS011;3047;42.600;23.470;2022-09-02T09:21:38;9.75;;;7.80;;
6037;SDS011;3047;42.600;23.470;2022-09-02T09:24:07;8.55;;;7.75;;
6037;SDS011;3047;42.600;23.470;2022-09-02T09:26:39;8.45;;;7.55;;
6037;SDS011;3047;42.600;23.470;2022-09-02T09:29:07;9.55;;;8.55;;
6037;SDS011;3047;42.600;23.470;2022-09-02T09:31:34;10.45;;;8.68;;
6037;SDS011;3047;42.600;23.470;2022-09-02T09:34:03;10.35;;;8.98;;
6037;SDS011;3047;42.600;23.470;2022-09-02T09:36:52;12.02;;;9.50;;
6037;SDS011;3047;42.600;23.470;2022-09-02T09:39:21;12.68;;;10.43;;
6037;SDS011;3047;42.600;23.470;2022-09-02T09:41:50;12.35;;;10.98;;
6037;SDS011;3047;42.600;23.470;2022-09-02T09:44:31;11.15;;;9.23;;
6037;SDS011;3047;42.600;23.470;2022-09-02T09:47:02;13.68;;;11.13;;
6037;SDS011;3047;42.600;23.470;2022-09-02T09:49:32;13.10;;;10.95;;
6037;SDS011;3047;42.600;23.470;2022-09-02T09:52:00;12.65;;;11.13;;
6037;SDS011;3047;42.600;23.470;2022-09-02T09:54:28;14.07;;;11.35;;
6037;SDS011;3047;42.600;23.470;2022-09-02T09:56:55;11.88;;;10.68;;
6037;SDS011;3047;42.600;23.470;2022-09-02T09:59:38;13.68;;;11.43;;
6037;SDS011;3047;42.600;23.470;2022-09-02T10:02:10;11.50;;;10.30;;
6037;SDS011;3047;42.600;23.470;2022-09-02T10:04:46;14.13;;;10.80;;
6037;SDS011;3047;42.600;23.470;2022-09-02T10:07:15;12.20;;;10.75;;
6037;SDS011;3047;42.600;23.470;2022-09-02T10:10:07;12.57;;;10.60;;
6037;SDS011;3047;42.600;23.470;2022-09-02T10:12:40;13.43;;;11.85;;
6037;SDS011;3047;42.600;23.470;2022-09-02T10:15:07;14.73;;;12.32;;
6037;SDS011;3047;42.600;23.470;2022-09-02T10:17:35;14.43;;;11.50;;
6037;SDS011;3047;42.600;23.470;2022-09-02T10:20:10;14.55;;;13.05;;
6037;SDS011;3047;42.600;23.470;2022-09-02T10:22:57;13.82;;;12.38;;
6037;SDS011;3047;42.600;23.470;2022-09-02T10:25:38;13.82;;;12.10;;
6037;SDS011;3047;42.600;23.470;2022-09-02T10:28:18;16.38;;;12.57;;
6037;SDS011;3047;42.600;23.470;2022-09-02T10:30:55;15.63;;;12.82;;
6037;SDS011;3047;42.600;23.470;2022-09-02T10:33:33;13.88;;;12.45;;
6037;SDS011;3047;42.600;23.470;2022-09-02T10:36:07;15.10;;;12.88;;
6037;SDS011;3047;42.600;23.470;2022-09-02T10:38:42;13.95;;;11.95;;
6037;SDS011;3047;42.600;23.470;2022-09-02T10:44:19;15.38;;;13.43;;
6037;SDS011;3047;42.600;23.470;2022-09-02T10:46:57;14.02;;;12.52;;
6037;SDS011;3047;42.600;23.470;2022-09-02T10:52:28;17.38;;;12.82;;
6037;SDS011;3047;42.600;23.470;2022-09-02T10:55:05;18.35;;;14.30;;
6037;SDS011;3047;42.600;23.470;2022-09-02T10:57:43;16.67;;;14.85;;
6037;SDS011;3047;42.600;23.470;2022-09-02T11:00:14;16.30;;;14.48;;
6037;SDS011;3047;42.600;23.470;2022-09-02T11:02:44;20.08;;;14.30;;
6037;SDS011;3047;42.600;23.470;2022-09-02T11:05:17;17.08;;;13.18;;
6037;SDS011;3047;42.600;23.470;2022-09-02T11:07:48;16.05;;;14.45;;
6037;SDS011;3047;42.600;23.470;2022-09-02T11:10:22;17.88;;;14.32;;
6037;SDS011;3047;42.600;23.470;2022-09-02T11:12:54;18.55;;;14.23;;
6037;SDS011;3047;42.600;23.470;2022-09-02T11:15:28;18.27;;;14.02;;
6037;SDS011;3047;42.600;23.470;2022-09-02T11:18:08;20.92;;;16.00;;
6037;SDS011;3047;42.600;23.470;2022-09-02T11:20:43;15.48;;;13.80;;
6037;SDS011;3047;42.600;23.470;2022-09-02T11:23:15;20.67;;;14.85;;
6037;SDS011;3047;42.600;23.470;2022-09-02T11:25:52;17.27;;;14.27;;
6037;SDS011;3047;42.600;23.470;2022-09-02T11:28:28;19.02;;;16.35;;
6037;SDS011;3047;42.600;23.470;2022-09-02T11:31:02;19.95;;;16.40;;
6037;SDS011;3047;42.600;23.470;2022-09-02T11:33:34;17.20;;;14.80;;
6037;SDS011;3047;42.600;23.470;2022-09-02T11:36:12;16.25;;;14.45;;
6037;SDS011;3047;42.600;23.470;2022-09-02T11:38:39;16.98;;;14.52;;
6037;SDS011;3047;42.600;23.470;2022-09-02T11:41:25;19.10;;;14.85;;
6037;SDS011;3047;42.600;23.470;2022-09-02T11:44:00;16.85;;;14.88;;
6037;SDS011;3047;42.600;23.470;2022-09-02T11:50:01;20.10;;;15.48;;
6037;SDS011;3047;42.600;23.470;2022-09-02T11:52:51;17.98;;;15.85;;
6037;SDS011;3047;42.600;23.470;2022-09-02T11:55:30;20.10;;;15.55;;
6037;SDS011;3047;42.600;23.470;2022-09-02T11:58:00;20.70;;;15.38;;
6037;SDS011;3047;42.600;23.470;2022-09-02T12:00:29;16.77;;;14.98;;
6037;SDS011;3047;42.600;23.470;2022-09-02T12:05:48;18.60;;;14.70;;
6037;SDS011;3047;42.600;23.470;2022-09-02T12:11:33;18.75;;;15.45;;
6037;SDS011;3047;42.600;23.470;2022-09-02T12:17:36;17.95;;;15.63;;
6037;SDS011;3047;42.600;23.470;2022-09-02T12:20:11;19.23;;;14.82;;
6037;SDS011;3047;42.600;23.470;2022-09-02T12:26:16;18.05;;;15.65;;
6037;SDS011;3047;42.600;23.470;2022-09-02T12:28:44;18.50;;;15.43;;
6037;SDS011;3047;42.600;23.470;2022-09-02T12:31:13;20.30;;;15.98;;
6037;SDS011;3047;42.600;23.470;2022-09-02T12:33:46;18.02;;;15.60;;
6037;SDS011;3047;42.600;23.470;2022-09-02T12:42:18;18.10;;;14.45;;
6037;SDS011;3047;42.600;23.470;2022-09-02T12:44:51;16.95;;;14.98;;
6037;SDS011;3047;42.600;23.470;2022-09-02T12:47:31;18.25;;;15.82;;
6037;SDS011;3047;42.600;23.470;2022-09-02T12:50:11;17.08;;;14.35;;
6037;SDS011;3047;42.600;23.470;2022-09-02T12:52:46;17.73;;;15.45;;
6037;SDS011;3047;42.600;23.470;2022-09-02T12:55:22;31.80;;;20.50;;
6037;SDS011;3047;42.600;23.470;2022-09-02T12:57:51;23.75;;;15.93;;
6037;SDS011;3047;42.600;23.470;2022-09-02T13:00:25;20.42;;;15.65;;
6037;SDS011;3047;42.600;23.470;2022-09-02T13:03:00;21.33;;;15.70;;
6037;SDS011;3047;42.600;23.470;2022-09-02T13:05:46;29.85;;;16.67;;
6037;SDS011;3047;42.600;23.470;2022-09-02T13:08:39;19.05;;;16.02;;
6037;SDS011;3047;42.600;23.470;2022-09-02T13:17:25;23.10;;;17.08;;
6037;SDS011;3047;42.600;23.470;2022-09-02T13:20:15;20.35;;;17.05;;
6037;SDS011;3047;42.600;23.470;2022-09-02T13:23:06;21.95;;;16.48;;
6037;SDS011;3047;42.600;23.470;2022-09-02T13:25:55;20.38;;;15.55;;
6037;SDS011;3047;42.600;23.470;2022-09-02T13:28:40;21.75;;;16.23;;
6037;SDS011;3047;42.600;23.470;2022-09-02T13:31:23;22.23;;;16.85;;
6037;SDS011;3047;42.600;23.470;2022-09-02T13:33:58;21.33;;;15.75;;
6037;SDS011;3047;42.600;23.470;2022-09-02T13:36:27;25.35;;;17.08;;
6037;SDS011;3047;42.600;23.470;2022-09-02T13:38:57;20.17;;;16.88;;
6037;SDS011;3047;42.600;23.470;2022-09-02T13:41:35;22.30;;;16.27;;
6037;SDS011;3047;42.600;23.470;2022-09-02T13:44:09;25.10;;;17.98;;
6037;SDS011;3047;42.600;23.470;2022-09-02T13:46:44;25.67;;;17.23;;
6037;SDS011;3047;42.600;23.470;2022-09-02T13:49:22;23.05;;;17.75;;
6037;SDS011;3047;42.600;23.470;2022-09-02T13:51:52;21.40;;;16.58;;
6037;SDS011;3047;42.600;23.470;2022-09-02T13:54:27;19.25;;;15.45;;
6037;SDS011;3047;42.600;23.470;2022-09-02T13:56:57;26.40;;;16.73;;
6037;SDS011;3047;42.600;23.470;2022-09-02T13:59:33;21.33;;;16.13;;
6037;SDS011;3047;42.600;23.470;2022-09-02T14:04:57;16.52;;;13.95;;
6037;SDS011;3047;42.600;23.470;2022-09-02T14:07:30;16.80;;;14.63;;
6037;SDS011;3047;42.600;23.470;2022-09-02T14:09:59;20.75;;;16.23;;
6037;SDS011;3047;42.600;23.470;2022-09-02T14:12:30;19.00;;;16.10;;
6037;SDS011;3047;42.600;23.470;2022-09-02T14:14:59;18.42;;;15.23;;
6037;SDS011;3047;42.600;23.470;2022-09-02T14:17:27;19.95;;;15.35;;
6037;SDS011;3047;42.600;23.470;2022-09-02T14:20:06;18.35;;;15.43;;
6037;SDS011;3047;42.600;23.470;2022-09-02T14:22:42;23.05;;;15.20;;
6037;SDS011;3047;42.600;23.470;2022-09-02T14:25:12;18.30;;;14.70;;
6037;SDS011;3047;42.600;23.470;2022-09-02T14:27:46;22.25;;;16.45;;
6037;SDS011;3047;42.600;23.470;2022-09-02T14:30:22;17.63;;;15.00;;
6037;SDS011;3047;42.600;23.470;2022-09-02T14:35:41;22.88;;;16.20;;
6037;SDS011;3047;42.600;23.470;2022-09-02T14:38:21;23.98;;;17.05;;
6037;SDS011;3047;42.600;23.470;2022-09-02T14:40:57;22.25;;;17.48;;
6037;SDS011;3047;42.600;23.470;2022-09-02T14:43:25;50.80;;;21.85;;
6037;SDS011;3047;42.600;23.470;2022-09-02T14:46:02;37.20;;;26.42;;
6037;SDS011;3047;42.600;23.470;2022-09-02T14:48:32;20.15;;;16.23;;
6037;SDS011;3047;42.600;23.470;2022-09-02T14:51:03;20.55;;;15.77;;
6037;SDS011;3047;42.600;23.470;2022-09-02T14:53:33;18.70;;;16.45;;
6037;SDS011;3047;42.600;23.470;2022-09-02T14:56:03;24.42;;;15.05;;
6037;SDS011;3047;42.600;23.470;2022-09-02T14:58:30;20.73;;;15.38;;
6037;SDS011;3047;42.600;23.470;2022-09-02T15:00:57;19.73;;;15.98;;
6037;SDS011;3047;42.600;23.470;2022-09-02T15:03:25;21.35;;;16.42;;
6037;SDS011;3047;42.600;23.470;2022-09-02T15:05:54;21.92;;;17.02;;
6037;SDS011;3047;42.600;23.470;2022-09-02T15:08:20;19.77;;;15.65;;
6037;SDS011;3047;42.600;23.470;2022-09-02T15:10:47;18.33;;;14.77;;
6037;SDS011;3047;42.600;23.470;2022-09-02T15:13:19;19.52;;;14.40;;
6037;SDS011;3047;42.600;23.470;2022-09-02T15:15:51;18.80;;;13.07;;
6037;SDS011;3047;42.600;23.470;2022-09-02T15:18:19;24.20;;;13.90;;
6037;SDS011;3047;42.600;23.470;2022-09-02T15:20:46;18.85;;;14.00;;
6037;SDS011;3047;42.600;23.470;2022-09-02T15:23:13;16.85;;;14.35;;
6037;SDS011;3047;42.600;23.470;2022-09-02T15:25:40;19.23;;;14.35;;
6037;SDS011;3047;42.600;23.470;2022-09-02T15:28:07;18.13;;;12.65;;
6037;SDS011;3047;42.600;23.470;2022-09-02T15:30:36;13.95;;;11.35;;
6037;SDS011;3047;42.600;23.470;2022-09-02T15:33:04;10.13;;;8.85;;
6037;SDS011;3047;42.600;23.470;2022-09-02T15:35:31;15.65;;;9.27;;
6037;SDS011;3047;42.600;23.470;2022-09-02T15:37:59;10.30;;;9.25;;
6037;SDS011;3047;42.600;23.470;2022-09-02T15:40:27;11.10;;;9.70;;
6037;SDS011;3047;42.600;23.470;2022-09-02T15:42:55;11.20;;;10.07;;
6037;SDS011;3047;42.600;23.470;2022-09-02T15:45:22;51.42;;;30.55;;